METAR Data
IDs: Format: Raw Decoded Include TAF

Data at: 1737 UTC 21 Sep 2018

KBKD 211715Z AUTO 18009KT 10SM -RA BKN036 BKN048 BKN060 26/24 A2995 RMK AO2 P0001 T02580240
KBKD 211655Z AUTO 16007KT 10SM -RA SCT024 BKN048 OVC085 26/24 A2996 RMK AO2 P0002 T02560241
KBKD 211635Z AUTO 18007KT 10SM SCT013 SCT031 BKN090 25/24 A2996 RMK AO2 LTG DSNT SW P0002 T02540241
KBKD 211615Z AUTO 17005KT 5SM -RA SCT034 BKN046 BKN060 25/24 A2996 RMK AO2 P0002 T02520241
KBKD 211555Z AUTO 16009KT 10SM -DZ SCT031 SCT040 BKN085 25/24 A2996 RMK AO2 T02540240
KBKD 211535Z AUTO 16008KT 10SM -DZ SCT049 BKN085 25/24 A2995 RMK AO2 T02520240
KBKD 211515Z AUTO 16006KT 7SM -RA SCT038 OVC049 25/24 A2995 RMK AO2 T02500239
KBKD 211455Z AUTO 16009KT 10SM -DZ BKN048 BKN080 BKN100 25/24 A2995 RMK AO2 LTG DSNT SW 60002 T02500238
KBKD 211435Z AUTO 14006KT 10SM -RA SCT010 SCT033 BKN044 25/24 A2995 RMK AO2 T02490240
KBKD 211415Z AUTO 14007KT 10SM -DZ SCT010 OVC042 25/24 A2995 RMK AO2 LTG DSNT SW T02460240
KBKD 211355Z AUTO 13006KT 10SM -RA SCT010 SCT031 SCT045 25/24 A2994 RMK AO2 T02450238
KBKD 211335Z AUTO 14006KT 10SM BKN010 BKN031 BKN043 24/24 A2993 RMK AO2 T02430237
KBKD 211315Z AUTO 14006KT 10SM OVC010 24/24 A2992 RMK AO2 T02410236
KBKD 211255Z AUTO 14007KT 10SM BKN012 OVC070 24/24 A2992 RMK AO2 P0002 T02410237
KBKD 211235Z AUTO 14007KT 10SM -RA SCT045 OVC060 24/24 A2991 RMK AO2 P0002 T02400236
KBKD 211215Z AUTO 14008KT 7SM RA SCT045 SCT050 BKN060 24/24 A2991 RMK AO2 P0001 T02400235
KBKD 211155Z AUTO 15006KT 10SM SCT033 SCT039 SCT080 24/24 A2991 RMK AO2 P0001 60001 70016 T02400235 10246 20235
KBKD 211135Z AUTO 15008KT 7SM -RA SCT036 BKN048 BKN060 24/23 A2991 RMK AO2 P0001 T02400233
KBKD 211115Z AUTO 15007KT 7SM RA SCT046 BKN060 OVC120 24/23 A2991 RMK AO2 T02430232
KBKD 211055Z AUTO 15006KT 10SM SCT070 BKN100 OVC110 25/23 A2991 RMK AO2 T02450230
KBKD 211035Z AUTO 15005KT 10SM SCT070 OVC100 25/23 A2991 RMK AO2 T02460230
KBKD 211015Z AUTO 16005KT 10SM BKN100 OVC120 25/23 A2991 RMK AO2 LTG DSNT SW T02460230
KBKD 210955Z AUTO 17004KT 10SM SCT090 BKN120 24/23 A2991 RMK AO2 T02440231
KBKD 210935Z AUTO 16007KT 10SM SCT110 24/23 A2990 RMK AO2 LTG DSNT SW T02430231
KBKD 210915Z AUTO 16008KT 10SM -RA SCT015 SCT120 25/23 A2990 RMK AO2 LTG DSNT SW T02450230
KBKD 210855Z AUTO 17007KT 10SM BKN015 BKN110 25/23 A2991 RMK AO2 T02450228
KBKD 210835Z AUTO 19007KT 10SM SCT013 BKN110 25/23 A2991 RMK AO2 T02450228
KBKD 210815Z AUTO 19009KT 10SM OVC013 24/23 A2991 RMK AO2 LTG DSNT SW T02430228
KBKD 210755Z AUTO 20008G14KT 10SM OVC013 24/23 A2991 RMK AO2 LTG DSNT SW T02420228
KBKD 210735Z AUTO 19007KT 10SM -DZ OVC013 24/23 A2991 RMK AO2 T02380227
KBKD 210715Z AUTO 18006KT 10SM -RA BKN013 BKN120 24/23 A2991 RMK AO2 T02360225
KBKD 210655Z AUTO 17008KT 10SM SCT013 SCT120 24/22 A2991 RMK AO2 T02370222
KBKD 210635Z AUTO 17010KT 10SM SCT013 BKN110 24/22 A2991 RMK AO2 T02360221
KBKD 210615Z AUTO 17011KT 10SM SCT013 BKN120 24/22 A2992 RMK AO2 T02360221
KBKD 210555Z AUTO 17010G17KT 10SM SCT120 24/22 A2992 RMK AO2 60012 T02350220 10250 20231 403320225
KBKD 210535Z AUTO 16011G17KT 10SM SCT120 24/22 A2992 RMK AO2 T02350220
KBKD 210515Z AUTO 16011KT 10SM SCT120 24/22 A2992 RMK AO2 T02350220
KBKD 210455Z AUTO 16010G15KT 10SM BKN120 23/22 A2993 RMK AO2 T02340220
KBKD 210435Z AUTO 16011KT 10SM BKN120 24/22 A2993 RMK AO2 T02350221
KBKD 210415Z AUTO 16011G18KT 10SM SCT075 SCT120 24/22 A2993 RMK AO2 T02350223
KBKD 210355Z AUTO 15008G14KT 10SM SCT013 BKN075 BKN090 23/23 A2994 RMK AO2 T02330225
KBKD 210335Z AUTO 14010KT 10SM SCT013 BKN060 BKN075 23/23 A2993 RMK AO2 T02330226
KBKD 210315Z AUTO 13009G14KT 10SM SCT015 SCT025 OVC060 24/23 A2993 RMK AO2 T02350226
KBKD 210255Z AUTO 13010KT 3SM +RA SCT021 BKN048 OVC060 23/23 A2994 RMK AO2 P0011 60011 T02320225
KBKD 210235Z AUTO 16013G17KT 7SM RA SCT047 BKN060 OVC090 24/22 A2993 RMK AO2 P0001 T02360221
KBKD 210215Z AUTO 15013G16KT 7SM -RA SCT032 SCT050 OVC075 24/21 A2992 RMK AO2 P0001 T02400207
KBKD 210155Z AUTO 16008G16KT 10SM OVC080 25/20 A2991 RMK AO2 T02460200
KBKD 210135Z AUTO 16013G17KT 10SM SCT075 OVC090 25/20 A2991 RMK AO2 T02480196
KBKD 210115Z AUTO 16013G18KT 10SM BKN075 OVC085 25/19 A2990 RMK AO2 T02480193
KBKD 210055Z AUTO 15010KT 10SM OVC075 25/20 A2989 RMK AO2 T02460196
KBKD 210035Z AUTO 15008KT 10SM BKN080 OVC090 25/20 A2988 RMK AO2 T02470204
KBKD 210015Z AUTO 16010KT 10SM SCT085 OVC090 25/21 A2988 RMK AO2 T02490205
KBKD 202355Z AUTO 14014KT 10SM BKN095 OVC110 25/21 A2988 RMK AO2 P0001 60003 T02480208 10332 20240
KBKD 202335Z AUTO 15015KT 10SM SCT095 BKN110 25/21 A2988 RMK AO2 P0001 T02470206
KBKD 202315Z AUTO 14014G19KT 10SM SCT036 BKN095 OVC120 25/21 A2987 RMK AO2 P0001 T02450206
KBKD 202255Z AUTO 15018G26KT 10SM -RA SCT042 BKN075 BKN090 25/21 A2988 RMK AO2 LTG DSNT NE T02510211
KBKD 202235Z AUTO 15021G28KT 10SM BKN039 BKN050 OVC065 30/20 A2986 RMK AO2 T02990195
KBKD 202215Z AUTO 15012G16KT 10SM SCT050 SCT070 SCT110 31/18 A2985 RMK AO2 LTG DSNT E T03140175
KBKD 202155Z AUTO 21007KT 160V240 10SM SCT050 SCT070 SCT100 31/19 A2986 RMK AO2 LTG DSNT NE T03060190
KBKD 202135Z AUTO 24012G15KT 10SM SCT055 30/19 A2985 RMK AO2 LTG DSNT NE T03030193
KBKD 202115Z AUTO 18010G17KT 10SM SCT030 SCT040 SCT050 30/18 A2986 RMK AO2 LTG DSNT NE AND NW T03000182
KBKD 202055Z AUTO 15016G26KT 7SM RA SCT033 BKN050 OVC100 30/19 A2986 RMK AO2 LTG DSNT NW P0002 60002 T03030194
KBKD 202035Z AUTO 13012G20KT 10SM BKN050 BKN100 33/19 A2986 RMK AO2 LTG DSNT S T03270190
KBKD 202015Z AUTO 15010G17KT 10SM CLR 33/19 A2987 RMK AO2 T03300186
KBKD 201955Z AUTO 14014G17KT 10SM SCT048 SCT060 33/19 A2988 RMK AO2 LTG DSNT SE T03300189
KBKD 201935Z AUTO 16014G17KT 10SM SCT048 SCT060 SCT075 32/18 A2990 RMK AO2 T03170179
KBKD 201915Z AUTO 19012G16KT 10SM SCT044 SCT055 SCT075 33/19 A2991 RMK AO2 T03250187
KBKD 201855Z AUTO 19011G19KT 10SM SCT043 SCT048 SCT055 33/19 A2992 RMK AO2 T03310186
KBKD 201835Z AUTO 18012G20KT 150V210 10SM SCT043 SCT049 32/19 A2993 RMK AO2 LTG DSNT E T03220188
KBKD 201815Z AUTO 19014G18KT 10SM SCT043 SCT049 33/18 A2994 RMK AO2 T03270183
KBKD 201755Z AUTO 20010G19KT 10SM SCT041 SCT048 32/19 A2994 RMK AO2 T03190187 10321 20225
KBKD 201735Z AUTO 17012G19KT 10SM SCT039 SCT048 32/19 A2995 RMK AO2 T03200192
KBKD 201715Z AUTO 18012G17KT 10SM CLR 31/19 A2996 RMK AO2 T03100194
KBKD 201655Z AUTO 18016G20KT 10SM CLR 31/20 A2997 RMK AO2 T03080198
KBKD 201635Z AUTO 19011G16KT 10SM CLR 31/20 A2997 RMK AO2 T03060200
KBKD 201615Z AUTO 19012G16KT 10SM CLR 30/20 A2997 RMK AO2 T03020200
KBKD 201555Z AUTO 20011KT 10SM SCT026 30/20 A2998 RMK AO2 T03030202
KBKD 201535Z AUTO 18014KT 10SM SCT026 30/20 A2998 RMK AO2 T02960204
KBKD 201515Z AUTO 20010G15KT 10SM CLR 29/21 A2997 RMK AO2 T02910205
KBKD 201455Z AUTO 20014KT 10SM CLR 29/21 A2997 RMK AO2 T02860206
KBKD 201435Z AUTO 22010G14KT 10SM CLR 28/21 A2997 RMK AO2 T02760209
KBKD 201415Z AUTO 20012KT 10SM CLR 27/21 A2997 RMK AO2 T02650206
KBKD 201355Z AUTO 20007KT 10SM CLR 26/21 A2995 RMK AO2 T02580208
KBKD 201335Z AUTO 19005KT 10SM CLR 25/22 A2995 RMK AO2 T02450217
KBKD 201315Z AUTO 19005KT 10SM CLR 24/22 A2995 RMK AO2 T02350216
KBKD 201255Z AUTO 16005KT 10SM CLR 23/21 A2994 RMK AO2 T02260213
KBKD 201235Z AUTO 15006KT 10SM CLR 23/21 A2994 RMK AO2 T02250212
KBKD 201215Z AUTO 16005KT 10SM CLR 23/21 A2993 RMK AO2 T02280209
KBKD 201155Z AUTO 18006KT 10SM CLR 23/20 A2993 RMK AO2 T02300201 10253 20230
KBKD 201135Z AUTO 17006KT 10SM CLR 23/20 A2992 RMK AO2 T02320200
KBKD 201115Z AUTO 17006KT 10SM CLR 24/20 A2992 RMK AO2 T02350200
KBKD 201055Z AUTO 17008KT 10SM CLR 24/20 A2992 RMK AO2 T02360198
KBKD 201035Z AUTO 16009KT 10SM CLR 24/20 A2992 RMK AO2 T02400196
KBKD 201015Z AUTO 18009KT 10SM CLR 24/20 A2992 RMK AO2 T02380196
KBKD 200955Z AUTO 16007KT 10SM CLR 24/20 A2992 RMK AO2 T02400195
KBKD 200935Z AUTO 17007KT 10SM CLR 24/19 A2992 RMK AO2 T02400193
KBKD 200915Z AUTO 16007KT 10SM CLR 24/19 A2993 RMK AO2 T02410193
KBKD 200855Z AUTO 16006KT 10SM CLR 24/19 A2992 RMK AO2 T02410193
KBKD 200835Z AUTO 16007KT 10SM CLR 24/19 A2993 RMK AO2 T02430193
KBKD 200815Z AUTO 16009KT 10SM CLR 24/19 A2993 RMK AO2 T02430192
KBKD 200755Z AUTO 16010KT 10SM CLR 25/19 A2993 RMK AO2 T02450191
KBKD 200735Z AUTO 17008KT 10SM CLR 25/19 A2994 RMK AO2 T02470192
KBKD 200715Z AUTO 16008KT 10SM CLR 25/19 A2993 RMK AO2 T02470191
KBKD 200655Z AUTO 16008KT 10SM CLR 25/19 A2993 RMK AO2 T02500190
KBKD 200635Z AUTO 16009KT 10SM CLR 25/19 A2994 RMK AO2 T02520190
KBKD 200615Z AUTO 16010KT 10SM CLR 25/19 A2994 RMK AO2 T02530190
KBKD 200555Z AUTO 16009KT 10SM CLR 25/19 A2994 RMK AO2 T02540188 10327 20254 403510216